sensor_id;sensor_type;location;lat;lon;timestamp;pressure;altitude;pressure_sealevel;temperature;humidity
31483;BME280;18103;52.246;8.052;2022-11-11T00:00:34;101602.56;;;10.17;76.90
31483;BME280;18103;52.246;8.052;2022-11-11T00:03:00;101607.75;;;10.19;76.65
31483;BME280;18103;52.246;8.052;2022-11-11T00:05:26;101600.50;;;10.22;76.55
31483;BME280;18103;52.246;8.052;2022-11-11T00:07:53;101595.75;;;10.13;76.77
31483;BME280;18103;52.246;8.052;2022-11-11T00:10:24;101606.31;;;10.13;76.79
31483;BME280;18103;52.246;8.052;2022-11-11T00:12:50;101602.72;;;10.14;76.63
31483;BME280;18103;52.246;8.052;2022-11-11T00:15:15;101600.25;;;10.27;75.91
31483;BME280;18103;52.246;8.052;2022-11-11T00:17:40;101600.97;;;10.15;76.54
31483;BME280;18103;52.246;8.052;2022-11-11T00:20:24;101606.88;;;10.18;76.44
31483;BME280;18103;52.246;8.052;2022-11-11T00:23:18;101603.50;;;10.16;76.53
31483;BME280;18103;52.246;8.052;2022-11-11T00:26:03;101616.34;;;10.06;76.67
31483;BME280;18103;52.246;8.052;2022-11-11T00:28:29;101619.00;;;10.06;76.47
31483;BME280;18103;52.246;8.052;2022-11-11T00:31:05;101623.91;;;10.13;76.49
31483;BME280;18103;52.246;8.052;2022-11-11T00:33:32;101634.56;;;10.11;76.33
31483;BME280;18103;52.246;8.052;2022-11-11T00:35:58;101631.41;;;10.04;76.60
31483;BME280;18103;52.246;8.052;2022-11-11T00:38:24;101624.19;;;10.08;76.33
31483;BME280;18103;52.246;8.052;2022-11-11T00:41:08;101630.38;;;10.07;76.44
31483;BME280;18103;52.246;8.052;2022-11-11T00:43:34;101641.13;;;10.04;76.47
31483;BME280;18103;52.246;8.052;2022-11-11T00:46:00;101636.63;;;10.06;76.61
31483;BME280;18103;52.246;8.052;2022-11-11T00:48:43;101638.38;;;10.05;76.42
31483;BME280;18103;52.246;8.052;2022-11-11T00:51:28;101650.81;;;10.03;76.49
31483;BME280;18103;52.246;8.052;2022-11-11T00:53:53;101654.22;;;10.05;76.43
31483;BME280;18103;52.246;8.052;2022-11-11T00:56:19;101653.56;;;10.02;76.56
31483;BME280;18103;52.246;8.052;2022-11-11T00:58:45;101648.34;;;10.00;76.43
31483;BME280;18103;52.246;8.052;2022-11-11T01:01:10;101657.22;;;9.99;76.44
31483;BME280;18103;52.246;8.052;2022-11-11T01:03:36;101653.59;;;10.00;76.89
31483;BME280;18103;52.246;8.052;2022-11-11T01:06:02;101647.75;;;9.95;76.78
31483;BME280;18103;52.246;8.052;2022-11-11T01:08:29;101657.38;;;9.96;76.66
31483;BME280;18103;52.246;8.052;2022-11-11T01:10:55;101652.84;;;9.98;76.18
31483;BME280;18103;52.246;8.052;2022-11-11T01:15:50;101662.03;;;9.91;76.65
31483;BME280;18103;52.246;8.052;2022-11-11T01:18:19;101671.59;;;9.93;76.69
31483;BME280;18103;52.246;8.052;2022-11-11T01:20:45;101661.78;;;9.96;76.40
31483;BME280;18103;52.246;8.052;2022-11-11T01:23:12;101660.06;;;9.94;76.33
31483;BME280;18103;52.246;8.052;2022-11-11T01:25:40;101659.06;;;9.97;76.71
31483;BME280;18103;52.246;8.052;2022-11-11T01:28:06;101672.34;;;9.96;76.43
31483;BME280;18103;52.246;8.052;2022-11-11T01:30:33;101659.81;;;9.83;76.83
31483;BME280;18103;52.246;8.052;2022-11-11T01:33:00;101666.03;;;9.98;76.39
31483;BME280;18103;52.246;8.052;2022-11-11T01:35:26;101663.91;;;9.89;76.91
31483;BME280;18103;52.246;8.052;2022-11-11T01:37:51;101658.13;;;9.82;76.72
31483;BME280;18103;52.246;8.052;2022-11-11T01:40:17;101657.25;;;9.82;77.05
31483;BME280;18103;52.246;8.052;2022-11-11T01:42:51;101658.88;;;9.84;76.63
31483;BME280;18103;52.246;8.052;2022-11-11T01:45:46;101659.31;;;9.76;77.10
31483;BME280;18103;52.246;8.052;2022-11-11T01:51:38;101657.78;;;9.72;76.94
31483;BME280;18103;52.246;8.052;2022-11-11T01:54:06;101648.25;;;9.70;77.05
31483;BME280;18103;52.246;8.052;2022-11-11T01:56:33;101652.50;;;9.72;77.20
31483;BME280;18103;52.246;8.052;2022-11-11T01:59:06;101653.44;;;9.71;77.33
31483;BME280;18103;52.246;8.052;2022-11-11T02:01:33;101655.16;;;9.72;77.18
31483;BME280;18103;52.246;8.052;2022-11-11T02:04:01;101659.63;;;9.70;77.44
31483;BME280;18103;52.246;8.052;2022-11-11T02:06:52;101655.97;;;9.73;77.13
31483;BME280;18103;52.246;8.052;2022-11-11T02:09:20;101658.69;;;9.71;77.21
31483;BME280;18103;52.246;8.052;2022-11-11T02:11:47;101665.69;;;9.72;77.25
31483;BME280;18103;52.246;8.052;2022-11-11T02:14:34;101651.63;;;9.72;77.20
31483;BME280;18103;52.246;8.052;2022-11-11T02:17:06;101655.19;;;9.71;77.35
31483;BME280;18103;52.246;8.052;2022-11-11T02:19:44;101655.97;;;9.73;77.46
31483;BME280;18103;52.246;8.052;2022-11-11T02:22:17;101655.19;;;9.71;77.25
31483;BME280;18103;52.246;8.052;2022-11-11T02:24:47;101647.63;;;9.65;77.25
31483;BME280;18103;52.246;8.052;2022-11-11T02:27:15;101651.06;;;9.67;77.47
31483;BME280;18103;52.246;8.052;2022-11-11T02:29:43;101661.66;;;9.65;77.61
31483;BME280;18103;52.246;8.052;2022-11-11T02:32:10;101657.91;;;9.69;77.12
31483;BME280;18103;52.246;8.052;2022-11-11T02:34:35;101653.69;;;9.67;77.03
31483;BME280;18103;52.246;8.052;2022-11-11T02:37:04;101652.91;;;9.65;77.48
31483;BME280;18103;52.246;8.052;2022-11-11T02:39:32;101651.09;;;9.65;77.48
31483;BME280;18103;52.246;8.052;2022-11-11T02:41:58;101645.16;;;9.62;77.76
31483;BME280;18103;52.246;8.052;2022-11-11T02:44:25;101639.81;;;9.63;77.55
31483;BME280;18103;52.246;8.052;2022-11-11T02:46:53;101635.38;;;9.64;77.34
31483;BME280;18103;52.246;8.052;2022-11-11T02:49:19;101640.72;;;9.62;77.39
31483;BME280;18103;52.246;8.052;2022-11-11T02:51:44;101642.91;;;9.54;77.80
31483;BME280;18103;52.246;8.052;2022-11-11T02:54:11;101637.66;;;9.54;77.71
31483;BME280;18103;52.246;8.052;2022-11-11T02:56:36;101631.53;;;9.53;77.73
31483;BME280;18103;52.246;8.052;2022-11-11T02:59:20;101631.38;;;9.56;77.57
31483;BME280;18103;52.246;8.052;2022-11-11T03:01:46;101640.28;;;9.54;77.96
31483;BME280;18103;52.246;8.052;2022-11-11T03:04:12;101631.28;;;9.58;77.49
31483;BME280;18103;52.246;8.052;2022-11-11T03:06:37;101634.19;;;9.53;77.82
31483;BME280;18103;52.246;8.052;2022-11-11T03:09:02;101633.16;;;9.56;77.77
31483;BME280;18103;52.246;8.052;2022-11-11T03:11:28;101636.81;;;9.53;77.94
31483;BME280;18103;52.246;8.052;2022-11-11T03:13:57;101627.28;;;9.51;77.81
31483;BME280;18103;52.246;8.052;2022-11-11T03:16:23;101632.28;;;9.55;77.56
31483;BME280;18103;52.246;8.052;2022-11-11T03:19:07;101627.19;;;9.52;77.62
31483;BME280;18103;52.246;8.052;2022-11-11T03:21:33;101634.09;;;9.55;77.62
31483;BME280;18103;52.246;8.052;2022-11-11T03:23:59;101627.44;;;9.48;78.05
31483;BME280;18103;52.246;8.052;2022-11-11T03:26:24;101622.84;;;9.51;77.81
31483;BME280;18103;52.246;8.052;2022-11-11T03:28:50;101620.91;;;9.55;77.90
31483;BME280;18103;52.246;8.052;2022-11-11T03:31:15;101622.19;;;9.48;78.08
31483;BME280;18103;52.246;8.052;2022-11-11T03:33:41;101624.19;;;9.42;78.21
31483;BME280;18103;52.246;8.052;2022-11-11T03:36:07;101628.38;;;9.47;78.13
31483;BME280;18103;52.246;8.052;2022-11-11T03:38:32;101626.91;;;9.41;78.14
31483;BME280;18103;52.246;8.052;2022-11-11T03:40:58;101630.25;;;9.45;78.10
31483;BME280;18103;52.246;8.052;2022-11-11T03:43:26;101632.19;;;9.41;78.22
31483;BME280;18103;52.246;8.052;2022-11-11T03:45:53;101633.56;;;9.48;77.88
31483;BME280;18103;52.246;8.052;2022-11-11T03:48:20;101625.28;;;9.38;78.18
31483;BME280;18103;52.246;8.052;2022-11-11T03:50:46;101633.06;;;9.41;78.04
31483;BME280;18103;52.246;8.052;2022-11-11T03:53:12;101631.19;;;9.44;78.01
31483;BME280;18103;52.246;8.052;2022-11-11T03:55:39;101629.47;;;9.42;77.99
31483;BME280;18103;52.246;8.052;2022-11-11T03:58:05;101630.72;;;9.35;78.36
31483;BME280;18103;52.246;8.052;2022-11-11T04:00:30;101628.94;;;9.36;78.41
31483;BME280;18103;52.246;8.052;2022-11-11T04:03:17;101627.84;;;9.40;78.03
31483;BME280;18103;52.246;8.052;2022-11-11T04:06:02;101638.63;;;9.35;78.29
31483;BME280;18103;52.246;8.052;2022-11-11T04:08:46;101633.19;;;9.38;78.53
31483;BME280;18103;52.246;8.052;2022-11-11T04:11:34;101635.47;;;9.29;78.59
31483;BME280;18103;52.246;8.052;2022-11-11T04:14:03;101637.09;;;9.31;78.51
31483;BME280;18103;52.246;8.052;2022-11-11T04:16:47;101641.44;;;9.32;78.05
31483;BME280;18103;52.246;8.052;2022-11-11T04:19:12;101638.88;;;9.31;78.39
31483;BME280;18103;52.246;8.052;2022-11-11T04:22:10;101639.97;;;9.27;78.56
31483;BME280;18103;52.246;8.052;2022-11-11T04:24:36;101638.25;;;9.25;78.49
31483;BME280;18103;52.246;8.052;2022-11-11T04:27:20;101645.91;;;9.30;78.30
31483;BME280;18103;52.246;8.052;2022-11-11T04:29:45;101639.09;;;9.26;78.51
31483;BME280;18103;52.246;8.052;2022-11-11T04:32:18;101648.25;;;9.19;78.51
31483;BME280;18103;52.246;8.052;2022-11-11T04:35:05;101653.41;;;9.22;78.61
31483;BME280;18103;52.246;8.052;2022-11-11T04:37:33;101654.41;;;9.19;78.68
31483;BME280;18103;52.246;8.052;2022-11-11T04:39:59;101665.31;;;9.12;79.21
31483;BME280;18103;52.246;8.052;2022-11-11T04:42:43;101661.28;;;9.22;78.69
31483;BME280;18103;52.246;8.052;2022-11-11T04:45:10;101658.97;;;9.16;78.85
31483;BME280;18103;52.246;8.052;2022-11-11T04:48:06;101672.13;;;9.16;78.58
31483;BME280;18103;52.246;8.052;2022-11-11T04:50:42;101668.09;;;9.08;79.20
31483;BME280;18103;52.246;8.052;2022-11-11T04:53:11;101667.09;;;9.11;79.09
31483;BME280;18103;52.246;8.052;2022-11-11T04:55:42;101661.75;;;9.13;79.06
31483;BME280;18103;52.246;8.052;2022-11-11T04:58:28;101662.69;;;9.12;79.31
31483;BME280;18103;52.246;8.052;2022-11-11T05:00:54;101666.41;;;9.07;79.89
31483;BME280;18103;52.246;8.052;2022-11-11T05:03:20;101665.84;;;9.01;79.60
31483;BME280;18103;52.246;8.052;2022-11-11T05:05:50;101665.63;;;9.05;79.42
31483;BME280;18103;52.246;8.052;2022-11-11T05:08:36;101671.00;;;9.04;79.33
31483;BME280;18103;52.246;8.052;2022-11-11T05:11:25;101676.84;;;9.09;79.40
31483;BME280;18103;52.246;8.052;2022-11-11T05:13:52;101676.53;;;8.98;79.80
31483;BME280;18103;52.246;8.052;2022-11-11T05:16:57;101690.44;;;9.01;79.64
31483;BME280;18103;52.246;8.052;2022-11-11T05:19:42;101693.91;;;9.02;79.60
31483;BME280;18103;52.246;8.052;2022-11-11T05:22:35;101693.13;;;9.00;79.82
31483;BME280;18103;52.246;8.052;2022-11-11T05:25:01;101691.34;;;9.00;79.67
31483;BME280;18103;52.246;8.052;2022-11-11T05:27:45;101685.16;;;9.01;80.01
31483;BME280;18103;52.246;8.052;2022-11-11T05:30:13;101701.03;;;9.00;79.95
31483;BME280;18103;52.246;8.052;2022-11-11T05:32:39;101706.22;;;9.01;79.92
31483;BME280;18103;52.246;8.052;2022-11-11T05:35:06;101713.97;;;9.04;79.85
31483;BME280;18103;52.246;8.052;2022-11-11T05:37:31;101716.03;;;8.98;79.88
31483;BME280;18103;52.246;8.052;2022-11-11T05:39:57;101714.34;;;8.97;79.87
31483;BME280;18103;52.246;8.052;2022-11-11T05:42:25;101710.78;;;8.98;79.86
31483;BME280;18103;52.246;8.052;2022-11-11T05:44:51;101708.16;;;8.98;79.82
31483;BME280;18103;52.246;8.052;2022-11-11T05:47:16;101710.03;;;8.96;80.15
31483;BME280;18103;52.246;8.052;2022-11-11T05:49:42;101715.75;;;9.04;79.66
31483;BME280;18103;52.246;8.052;2022-11-11T05:52:09;101718.00;;;8.94;80.18
31483;BME280;18103;52.246;8.052;2022-11-11T05:54:35;101709.16;;;8.95;80.31
31483;BME280;18103;52.246;8.052;2022-11-11T05:57:04;101712.25;;;9.03;79.71
31483;BME280;18103;52.246;8.052;2022-11-11T05:59:30;101716.22;;;8.95;80.33
31483;BME280;18103;52.246;8.052;2022-11-11T06:01:55;101715.28;;;8.96;80.15
31483;BME280;18103;52.246;8.052;2022-11-11T06:04:21;101712.03;;;8.90;80.72
31483;BME280;18103;52.246;8.052;2022-11-11T06:06:46;101712.09;;;8.89;80.56
31483;BME280;18103;52.246;8.052;2022-11-11T06:09:11;101714.72;;;8.89;80.50
31483;BME280;18103;52.246;8.052;2022-11-11T06:11:37;101717.19;;;8.92;80.22
31483;BME280;18103;52.246;8.052;2022-11-11T06:14:03;101734.56;;;8.96;80.20
31483;BME280;18103;52.246;8.052;2022-11-11T06:16:29;101729.53;;;8.92;80.53
31483;BME280;18103;52.246;8.052;2022-11-11T06:18:54;101727.06;;;8.88;80.43
31483;BME280;18103;52.246;8.052;2022-11-11T06:21:19;101722.47;;;8.92;80.57
31483;BME280;18103;52.246;8.052;2022-11-11T06:23:45;101709.69;;;8.84;80.77
31483;BME280;18103;52.246;8.052;2022-11-11T06:26:11;101702.72;;;8.83;80.79
31483;BME280;18103;52.246;8.052;2022-11-11T06:28:45;101721.38;;;8.96;80.12
31483;BME280;18103;52.246;8.052;2022-11-11T06:31:14;101719.91;;;8.90;80.37
31483;BME280;18103;52.246;8.052;2022-11-11T06:33:40;101719.84;;;8.92;80.58
31483;BME280;18103;52.246;8.052;2022-11-11T06:36:06;101713.09;;;8.86;80.80
31483;BME280;18103;52.246;8.052;2022-11-11T06:38:33;101707.91;;;8.85;80.66
31483;BME280;18103;52.246;8.052;2022-11-11T06:40:58;101715.03;;;8.83;80.67
31483;BME280;18103;52.246;8.052;2022-11-11T06:43:24;101716.66;;;8.85;80.73
31483;BME280;18103;52.246;8.052;2022-11-11T06:45:51;101726.75;;;8.95;80.34
31483;BME280;18103;52.246;8.052;2022-11-11T06:48:16;101736.72;;;8.88;80.59
31483;BME280;18103;52.246;8.052;2022-11-11T06:50:42;101733.09;;;8.90;80.64
31483;BME280;18103;52.246;8.052;2022-11-11T06:53:13;101743.31;;;8.97;80.24
31483;BME280;18103;52.246;8.052;2022-11-11T06:55:39;101745.41;;;8.90;80.45
31483;BME280;18103;52.246;8.052;2022-11-11T06:58:16;101748.81;;;8.92;80.39
31483;BME280;18103;52.246;8.052;2022-11-11T07:00:43;101755.88;;;8.92;80.33
31483;BME280;18103;52.246;8.052;2022-11-11T07:03:11;101760.06;;;8.96;80.02
31483;BME280;18103;52.246;8.052;2022-11-11T07:05:37;101765.31;;;8.96;80.07
31483;BME280;18103;52.246;8.052;2022-11-11T07:08:04;101752.31;;;8.93;80.21
31483;BME280;18103;52.246;8.052;2022-11-11T07:10:30;101761.63;;;9.00;80.06
31483;BME280;18103;52.246;8.052;2022-11-11T07:12:56;101757.19;;;9.00;79.96
31483;BME280;18103;52.246;8.052;2022-11-11T07:15:21;101757.19;;;9.00;79.79
31483;BME280;18103;52.246;8.052;2022-11-11T07:17:47;101748.44;;;9.00;79.88
31483;BME280;18103;52.246;8.052;2022-11-11T07:20:12;101755.94;;;9.07;79.31
31483;BME280;18103;52.246;8.052;2022-11-11T07:22:37;101754.19;;;9.08;79.21
31483;BME280;18103;52.246;8.052;2022-11-11T07:25:03;101759.97;;;9.15;79.25
31483;BME280;18103;52.246;8.052;2022-11-11T07:27:29;101774.88;;;9.16;78.80
31483;BME280;18103;52.246;8.052;2022-11-11T07:29:54;101769.84;;;9.11;78.78
31483;BME280;18103;52.246;8.052;2022-11-11T07:32:20;101778.28;;;9.18;78.54
31483;BME280;18103;52.246;8.052;2022-11-11T07:34:46;101782.78;;;9.16;78.85
31483;BME280;18103;52.246;8.052;2022-11-11T07:37:11;101784.41;;;9.18;78.19
31483;BME280;18103;52.246;8.052;2022-11-11T07:39:36;101779.84;;;9.22;78.06
31483;BME280;18103;52.246;8.052;2022-11-11T07:42:02;101775.25;;;9.25;78.04
31483;BME280;18103;52.246;8.052;2022-11-11T07:44:28;101777.66;;;9.30;77.66
31483;BME280;18103;52.246;8.052;2022-11-11T07:46:53;101786.34;;;9.32;77.68
31483;BME280;18103;52.246;8.052;2022-11-11T07:49:21;101781.09;;;9.32;77.47
31483;BME280;18103;52.246;8.052;2022-11-11T07:51:46;101789.75;;;9.34;77.50
31483;BME280;18103;52.246;8.052;2022-11-11T07:54:12;101784.47;;;9.34;77.28
31483;BME280;18103;52.246;8.052;2022-11-11T07:56:37;101794.09;;;9.35;77.18
31483;BME280;18103;52.246;8.052;2022-11-11T07:59:03;101790.31;;;9.41;77.03
31483;BME280;18103;52.246;8.052;2022-11-11T08:01:28;101787.44;;;9.46;76.48
31483;BME280;18103;52.246;8.052;2022-11-11T08:03:54;101790.13;;;9.44;76.80
31483;BME280;18103;52.246;8.052;2022-11-11T08:06:20;101792.41;;;9.52;76.64
31483;BME280;18103;52.246;8.052;2022-11-11T08:08:47;101780.06;;;9.52;76.17
31483;BME280;18103;52.246;8.052;2022-11-11T08:11:12;101785.13;;;9.57;75.99
31483;BME280;18103;52.246;8.052;2022-11-11T08:13:38;101791.31;;;9.56;75.88
31483;BME280;18103;52.246;8.052;2022-11-11T08:16:12;101791.00;;;9.62;75.63
31483;BME280;18103;52.246;8.052;2022-11-11T08:18:39;101786.34;;;9.67;75.86
31483;BME280;18103;52.246;8.052;2022-11-11T08:21:05;101791.47;;;9.70;75.55
31483;BME280;18103;52.246;8.052;2022-11-11T08:23:31;101799.00;;;9.78;75.30
31483;BME280;18103;52.246;8.052;2022-11-11T08:26:02;101807.75;;;9.79;74.82
31483;BME280;18103;52.246;8.052;2022-11-11T08:28:29;101795.25;;;9.82;74.82
31483;BME280;18103;52.246;8.052;2022-11-11T08:30:57;101796.19;;;9.81;75.16
31483;BME280;18103;52.246;8.052;2022-11-11T08:33:24;101797.56;;;9.88;74.78
31483;BME280;18103;52.246;8.052;2022-11-11T08:35:49;101797.94;;;9.98;74.32
31483;BME280;18103;52.246;8.052;2022-11-11T08:38:15;101793.28;;;10.03;74.22
31483;BME280;18103;52.246;8.052;2022-11-11T08:40:40;101805.69;;;10.01;73.89
31483;BME280;18103;52.246;8.052;2022-11-11T08:43:06;101802.66;;;10.09;73.88
31483;BME280;18103;52.246;8.052;2022-11-11T08:45:31;101802.47;;;10.12;73.67
31483;BME280;18103;52.246;8.052;2022-11-11T08:47:57;101797.56;;;10.22;73.10
31483;BME280;18103;52.246;8.052;2022-11-11T08:50:22;101794.84;;;10.23;73.51
31483;BME280;18103;52.246;8.052;2022-11-11T08:52:50;101797.31;;;10.26;73.41
31483;BME280;18103;52.246;8.052;2022-11-11T08:55:17;101796.22;;;10.31;73.16
31483;BME280;18103;52.246;8.052;2022-11-11T08:57:42;101802.38;;;10.31;73.19
31483;BME280;18103;52.246;8.052;2022-11-11T09:00:09;101802.06;;;10.37;72.52
31483;BME280;18103;52.246;8.052;2022-11-11T09:02:35;101799.25;;;10.40;72.48
31483;BME280;18103;52.246;8.052;2022-11-11T09:05:01;101797.03;;;10.49;72.67
31483;BME280;18103;52.246;8.052;2022-11-11T09:07:26;101803.84;;;10.53;72.38
31483;BME280;18103;52.246;8.052;2022-11-11T09:09:52;101806.00;;;10.62;72.12
31483;BME280;18103;52.246;8.052;2022-11-11T09:12:17;101813.50;;;10.54;72.43
31483;BME280;18103;52.246;8.052;2022-11-11T09:14:43;101814.34;;;10.54;72.00
31483;BME280;18103;52.246;8.052;2022-11-11T09:17:08;101817.41;;;10.63;72.65
31483;BME280;18103;52.246;8.052;2022-11-11T09:19:34;101822.44;;;10.67;72.08
31483;BME280;18103;52.246;8.052;2022-11-11T09:21:59;101817.06;;;10.69;71.65
31483;BME280;18103;52.246;8.052;2022-11-11T09:24:25;101825.31;;;10.78;71.75
31483;BME280;18103;52.246;8.052;2022-11-11T09:26:51;101830.38;;;10.83;71.58
31483;BME280;18103;52.246;8.052;2022-11-11T09:29:17;101828.91;;;10.93;71.27
31483;BME280;18103;52.246;8.052;2022-11-11T09:31:44;101826.53;;;10.89;71.36
31483;BME280;18103;52.246;8.052;2022-11-11T09:34:09;101831.56;;;10.93;71.43
31483;BME280;18103;52.246;8.052;2022-11-11T09:36:35;101836.41;;;11.01;71.05
31483;BME280;18103;52.246;8.052;2022-11-11T09:39:00;101823.34;;;10.98;70.96
31483;BME280;18103;52.246;8.052;2022-11-11T09:50:11;101840.66;;;11.20;70.86
31483;BME280;18103;52.246;8.052;2022-11-11T09:53:00;101837.06;;;11.21;70.61
31483;BME280;18103;52.246;8.052;2022-11-11T09:55:35;101842.78;;;11.29;70.66
31483;BME280;18103;52.246;8.052;2022-11-11T09:58:04;101835.50;;;11.33;70.40
31483;BME280;18103;52.246;8.052;2022-11-11T10:00:36;101835.78;;;11.28;70.42
31483;BME280;18103;52.246;8.052;2022-11-11T10:03:15;101847.97;;;11.30;70.26
31483;BME280;18103;52.246;8.052;2022-11-11T10:06:08;101849.66;;;11.32;69.97
31483;BME280;18103;52.246;8.052;2022-11-11T10:08:57;101849.63;;;11.47;70.12
31483;BME280;18103;52.246;8.052;2022-11-11T10:14:03;101855.81;;;11.62;69.66
31483;BME280;18103;52.246;8.052;2022-11-11T10:19:32;101853.16;;;11.62;69.51
31483;BME280;18103;52.246;8.052;2022-11-11T10:22:01;101859.81;;;11.70;69.51
31483;BME280;18103;52.246;8.052;2022-11-11T10:24:36;101860.78;;;11.83;69.35
31483;BME280;18103;52.246;8.052;2022-11-11T10:27:14;101855.41;;;11.85;69.21
31483;BME280;18103;52.246;8.052;2022-11-11T10:29:42;101862.22;;;11.89;69.21
31483;BME280;18103;52.246;8.052;2022-11-11T10:34:42;101853.09;;;11.94;69.81
31483;BME280;18103;52.246;8.052;2022-11-11T10:37:27;101846.06;;;11.93;69.15
31483;BME280;18103;52.246;8.052;2022-11-11T10:42:39;101847.34;;;12.02;68.88
31483;BME280;18103;52.246;8.052;2022-11-11T10:45:13;101847.53;;;12.13;68.56
31483;BME280;18103;52.246;8.052;2022-11-11T10:48:00;101860.22;;;12.23;69.12
31483;BME280;18103;52.246;8.052;2022-11-11T10:53:18;101853.31;;;12.35;68.07
31483;BME280;18103;52.246;8.052;2022-11-11T10:55:52;101851.25;;;12.40;69.00
31483;BME280;18103;52.246;8.052;2022-11-11T10:58:41;101857.47;;;12.39;nan
31483;BME280;18103;52.246;8.052;2022-11-11T11:01:12;101858.31;;;12.39;68.21
31483;BME280;18103;52.246;8.052;2022-11-11T11:03:42;101857.75;;;12.48;67.68
31483;BME280;18103;52.246;8.052;2022-11-11T11:06:15;101858.13;;;12.57;68.39
31483;BME280;18103;52.246;8.052;2022-11-11T11:08:52;101858.59;;;12.63;67.82
31483;BME280;18103;52.246;8.052;2022-11-11T11:11:22;101858.66;;;12.76;68.14
31483;BME280;18103;52.246;8.052;2022-11-11T11:14:02;101856.75;;;12.78;67.65
31483;BME280;18103;52.246;8.052;2022-11-11T11:16:32;101858.53;;;12.92;67.30
31483;BME280;18103;52.246;8.052;2022-11-11T11:19:25;101853.28;;;13.05;66.81
31483;BME280;18103;52.246;8.052;2022-11-11T11:21:54;101861.22;;;13.20;67.04
31483;BME280;18103;52.246;8.052;2022-11-11T11:24:24;101857.94;;;13.29;66.64
31483;BME280;18103;52.246;8.052;2022-11-11T11:26:55;101861.00;;;13.23;66.76
31483;BME280;18103;52.246;8.052;2022-11-11T11:31:55;101851.34;;;13.36;66.50
31483;BME280;18103;52.246;8.052;2022-11-11T11:34:20;101856.69;;;13.62;66.01
31483;BME280;18103;52.246;8.052;2022-11-11T11:36:59;101849.19;;;13.68;66.08
31483;BME280;18103;52.246;8.052;2022-11-11T11:39:36;101855.13;;;13.85;65.55
31483;BME280;18103;52.246;8.052;2022-11-11T11:42:02;101860.03;;;13.78;65.90
31483;BME280;18103;52.246;8.052;2022-11-11T11:44:31;101856.22;;;13.82;65.71
31483;BME280;18103;52.246;8.052;2022-11-11T11:47:48;101840.81;;;13.88;64.91
31483;BME280;18103;52.246;8.052;2022-11-11T11:55:33;101847.91;;;14.13;64.68
31483;BME280;18103;52.246;8.052;2022-11-11T11:58:11;101836.75;;;14.33;64.24
31483;BME280;18103;52.246;8.052;2022-11-11T12:01:01;101832.72;;;14.41;64.26
31483;BME280;18103;52.246;8.052;2022-11-11T12:06:21;101823.44;;;14.72;63.13
31483;BME280;18103;52.246;8.052;2022-11-11T12:11:45;101836.34;;;14.89;63.08
31483;BME280;18103;52.246;8.052;2022-11-11T12:14:36;101829.59;;;14.73;62.83
31483;BME280;18103;52.246;8.052;2022-11-11T12:19:54;101831.53;;;15.19;62.52
31483;BME280;18103;52.246;8.052;2022-11-11T12:25:11;101830.22;;;15.25;62.08
31483;BME280;18103;52.246;8.052;2022-11-11T12:30:18;101823.91;;;15.50;61.80
31483;BME280;18103;52.246;8.052;2022-11-11T12:33:10;101826.03;;;15.69;60.47
31483;BME280;18103;52.246;8.052;2022-11-11T12:35:59;101826.47;;;15.87;60.95
31483;BME280;18103;52.246;8.052;2022-11-11T12:46:45;101814.38;;;15.94;58.83
31483;BME280;18103;52.246;8.052;2022-11-11T13:00:18;101816.56;;;16.34;58.79
31483;BME280;18103;52.246;8.052;2022-11-11T13:05:33;101811.72;;;16.28;57.62
31483;BME280;18103;52.246;8.052;2022-11-11T13:08:41;101818.38;;;16.11;58.09
31483;BME280;18103;52.246;8.052;2022-11-11T13:16:49;101819.19;;;16.00;56.92
31483;BME280;18103;52.246;8.052;2022-11-11T13:19:20;101818.63;;;16.31;57.17
31483;BME280;18103;52.246;8.052;2022-11-11T13:21:56;101817.53;;;16.33;56.82
31483;BME280;18103;52.246;8.052;2022-11-11T13:24:23;101832.06;;;16.40;57.10
31483;BME280;18103;52.246;8.052;2022-11-11T13:26:55;101823.69;;;16.22;56.54
31483;BME280;18103;52.246;8.052;2022-11-11T13:32:15;101821.53;;;16.39;56.52
31483;BME280;18103;52.246;8.052;2022-11-11T13:34:44;101822.50;;;16.27;56.58
31483;BME280;18103;52.246;8.052;2022-11-11T13:37:21;101824.31;;;16.37;55.94
31483;BME280;18103;52.246;8.052;2022-11-11T13:39:50;101826.34;;;16.34;56.55
31483;BME280;18103;52.246;8.052;2022-11-11T13:42:23;101822.13;;;16.31;56.13
31483;BME280;18103;52.246;8.052;2022-11-11T13:44:58;101826.03;;;16.27;55.39
31483;BME280;18103;52.246;8.052;2022-11-11T13:47:36;101822.50;;;16.15;55.99
31483;BME280;18103;52.246;8.052;2022-11-11T13:50:07;101815.72;;;16.22;56.08
31483;BME280;18103;52.246;8.052;2022-11-11T13:52:38;101820.53;;;16.06;56.10
31483;BME280;18103;52.246;8.052;2022-11-11T13:55:22;101821.28;;;15.97;56.37
31483;BME280;18103;52.246;8.052;2022-11-11T13:57:50;101823.94;;;16.08;56.25
31483;BME280;18103;52.246;8.052;2022-11-11T14:02:42;101838.66;;;15.78;56.21
31483;BME280;18103;52.246;8.052;2022-11-11T14:10:08;101825.25;;;15.80;56.63
31483;BME280;18103;52.246;8.052;2022-11-11T14:15:45;101834.72;;;15.60;56.27
31483;BME280;18103;52.246;8.052;2022-11-11T14:20:51;101832.38;;;15.44;56.54
31483;BME280;18103;52.246;8.052;2022-11-11T14:25:48;101839.19;;;15.23;56.79
31483;BME280;18103;52.246;8.052;2022-11-11T14:41:49;101836.09;;;14.93;57.49
31483;BME280;18103;52.246;8.052;2022-11-11T14:57:32;101846.72;;;14.68;58.06
31483;BME280;18103;52.246;8.052;2022-11-11T15:02:49;101853.41;;;14.61;57.83
31483;BME280;18103;52.246;8.052;2022-11-11T15:05:49;101848.31;;;14.58;57.90
31483;BME280;18103;52.246;8.052;2022-11-11T15:08:25;101841.28;;;14.57;58.27
31483;BME280;18103;52.246;8.052;2022-11-11T15:24:46;101854.41;;;14.22;58.95
31483;BME280;18103;52.246;8.052;2022-11-11T15:35:55;101861.09;;;14.01;59.33
31483;BME280;18103;52.246;8.052;2022-11-11T15:38:23;101865.44;;;13.90;59.37
31483;BME280;18103;52.246;8.052;2022-11-11T15:40:58;101863.13;;;13.98;59.30